Leandra — V2EB4 — position and weather

sailwx.info

Track history (hours):
 
Tides and Currents Weather Stations Pressure Air Temp Water Temp Dewpoint Dewpoint Depression Visibility Wind Speed Wind Dir Waves Ship Positions

Leandra

Last reported at 2018-Apr-18 22:49 UTC. Time now 2018-Apr-22 01:19 UTC.
Position N 52°32' E 003°13'.

Length 146 m; draft 6.4 m.

Type: Cargo ship. MMSI: 305375000.

Date/timePositionNaut miles runAvg speedWind from/ knotsBaromVisibWave heightAir tempDewpointWater temp
2018-Apr-18 22:49N 52°32' E 003°13'411.8
2018-Apr-18 22:28N 52°29' E 003°16'510.0
2018-Apr-18 22:00N 52°24' E 003°17'611.4
2018-Apr-18 21:29N 52°18' E 003°19'611.4
2018-Apr-18 20:59N 52°13' E 003°22'612.8
2018-Apr-18 20:30N 52°09' E 003°30'1712.5
2018-Apr-18 19:07N 52°02' E 003°56'112.0
2018-Apr-18 19:01N 52°02' E 003°58'612.7
2018-Apr-18 18:30N 51°59' E 004°07'610.5
2018-Apr-18 17:58N 51°55' E 004°14'5 8.3
2018-Apr-18 17:23N 51°54' E 004°22'2 0.0
2018-Apr-16 19:21N 51°53' E 004°24'2 4.4
2018-Apr-16 19:00N 51°54' E 004°22'4 8.5
2018-Apr-16 18:29N 51°55' E 004°15'4 9.1
2018-Apr-16 18:00N 51°57' E 004°09'510.3
2018-Apr-16 17:30N 51°60' E 004°02'  
2018-Apr-14 08:36N 62°10' E 004°28'112.2
2018-Apr-14 08:30N 62°11' E 004°30'612.3
2018-Apr-14 08:01N 62°15' E 004°40'611.8
2018-Apr-14 07:30N 62°19' E 004°49'611.7
2018-Apr-14 07:00N 62°23' E 004°58'612.0
2018-Apr-14 06:31N 62°27' E 005°08'612.0
2018-Apr-14 06:00N 62°31' E 005°18'611.7
2018-Apr-14 05:30N 62°34' E 005°27'611.6
2018-Apr-14 05:00N 62°38' E 005°37'611.6
2018-Apr-14 04:30N 62°42' E 005°46'611.3
2018-Apr-14 04:00N 62°46' E 005°55'511.1
2018-Apr-14 03:31N 62°49' E 006°05'611.6
2018-Apr-14 02:59N 62°53' E 006°16'611.9
2018-Apr-14 02:30N 62°56' E 006°26'611.9
2018-Apr-14 02:01N 62°59' E 006°37'611.9
2018-Apr-14 01:31N 63°03' E 006°47'612.5
2018-Apr-14 01:00N 63°06' E 006°59'612.5
2018-Apr-14 00:30N 63°10' E 007°11'612.4
2018-Apr-14 00:00N 63°13' E 007°22'612.2
2018-Apr-13 23:30N 63°15' E 007°34'611.5
2018-Apr-13 23:00N 63°12' E 007°45'510.6
2018-Apr-13 22:31N 63°08' E 007°41'612.2
2018-Apr-13 22:00N 63°01' E 007°42'3 6.7
2018-Apr-13 21:30N 62°58' E 007°44'0 0.0
2018-Apr-13 20:59N 62°58' E 007°44'0 0.0
2018-Apr-13 20:29N 62°58' E 007°44'0 0.0
2018-Apr-13 19:59N 62°58' E 007°44'0 0.0
2018-Apr-13 19:26N 62°58' E 007°44'0 0.0
2018-Apr-13 18:50N 62°58' E 007°44'0 0.2
2018-Apr-13 18:28N 62°58' E 007°44'1 2.5
2018-Apr-13 18:00N 62°59' E 007°44'510.5
2018-Apr-13 17:30N 63°04' E 007°41'611.7
2018-Apr-13 17:00N 63°10' E 007°43'1110.6
2018-Apr-13 16:00N 63°21' E 007°38'612.3
2018-Apr-13 15:31N 63°27' E 007°39'612.0
2018-Apr-13 15:00N 63°33' E 007°42'612.3
2018-Apr-13 14:30N 63°38' E 007°49'612.4
2018-Apr-13 14:00N 63°43' E 007°56'612.6
2018-Apr-13 13:30N 63°49' E 008°04'612.2
2018-Apr-13 13:00N 63°54' E 008°11'612.0
2018-Apr-13 12:30N 63°59' E 008°18'16111.7
2018-Apr-12 22:45N 66°14' E 011°44'312.5
2018-Apr-12 22:30N 66°15' E 011°51'612.6
2018-Apr-12 22:00N 66°16' E 012°06'611.8
2018-Apr-12 21:31N 66°16' E 012°21'611.9
2018-Apr-12 21:00N 66°14' E 012°35'611.0
2018-Apr-12 20:30N 66°09' E 012°40'611.6
2018-Apr-12 20:00N 66°03' E 012°38'4 8.0
2018-Apr-12 19:30N 66°03' E 012°48'4 8.2
2018-Apr-12 19:00N 65°60' E 012°55'510.0
2018-Apr-12 18:28N 65°55' E 013°03'  
Track history (hours):
 
Tides and Currents Weather Stations Pressure Air Temp Water Temp Dewpoint Dewpoint Depression Visibility Wind Speed Wind Dir Waves Ship Positions

Leandra

Last reported at 2018-Apr-18 22:49 UTC. Time now 2018-Apr-22 01:19 UTC.
Position N 52°32' E 003°13'.

Length 146 m; draft 6.4 m.

Type: Cargo ship. MMSI: 305375000.

Date/timePositionNaut miles runAvg speedWind from/ knotsBaromVisibWave heightAir tempDewpointWater temp
2018-Apr-18 22:49N 52°32' E 003°13'411.8
2018-Apr-18 22:28N 52°29' E 003°16'510.0
2018-Apr-18 22:00N 52°24' E 003°17'611.4
2018-Apr-18 21:29N 52°18' E 003°19'611.4
2018-Apr-18 20:59N 52°13' E 003°22'612.8
2018-Apr-18 20:30N 52°09' E 003°30'1712.5
2018-Apr-18 19:07N 52°02' E 003°56'112.0
2018-Apr-18 19:01N 52°02' E 003°58'612.7
2018-Apr-18 18:30N 51°59' E 004°07'610.5
2018-Apr-18 17:58N 51°55' E 004°14'5 8.3
2018-Apr-18 17:23N 51°54' E 004°22'2 0.0
2018-Apr-16 19:21N 51°53' E 004°24'2 4.4
2018-Apr-16 19:00N 51°54' E 004°22'4 8.5
2018-Apr-16 18:29N 51°55' E 004°15'4 9.1
2018-Apr-16 18:00N 51°57' E 004°09'510.3
2018-Apr-16 17:30N 51°60' E 004°02'  
2018-Apr-14 08:36N 62°10' E 004°28'112.2
2018-Apr-14 08:30N 62°11' E 004°30'612.3
2018-Apr-14 08:01N 62°15' E 004°40'611.8
2018-Apr-14 07:30N 62°19' E 004°49'611.7
2018-Apr-14 07:00N 62°23' E 004°58'612.0
2018-Apr-14 06:31N 62°27' E 005°08'612.0
2018-Apr-14 06:00N 62°31' E 005°18'611.7
2018-Apr-14 05:30N 62°34' E 005°27'611.6
2018-Apr-14 05:00N 62°38' E 005°37'611.6
2018-Apr-14 04:30N 62°42' E 005°46'611.3
2018-Apr-14 04:00N 62°46' E 005°55'511.1
2018-Apr-14 03:31N 62°49' E 006°05'611.6
2018-Apr-14 02:59N 62°53' E 006°16'611.9
2018-Apr-14 02:30N 62°56' E 006°26'611.9
2018-Apr-14 02:01N 62°59' E 006°37'611.9
2018-Apr-14 01:31N 63°03' E 006°47'612.5
2018-Apr-14 01:00N 63°06' E 006°59'612.5
2018-Apr-14 00:30N 63°10' E 007°11'612.4
2018-Apr-14 00:00N 63°13' E 007°22'612.2
2018-Apr-13 23:30N 63°15' E 007°34'611.5
2018-Apr-13 23:00N 63°12' E 007°45'510.6
2018-Apr-13 22:31N 63°08' E 007°41'612.2
2018-Apr-13 22:00N 63°01' E 007°42'3 6.7
2018-Apr-13 21:30N 62°58' E 007°44'0 0.0
2018-Apr-13 20:59N 62°58' E 007°44'0 0.0
2018-Apr-13 20:29N 62°58' E 007°44'0 0.0
2018-Apr-13 19:59N 62°58' E 007°44'0 0.0
2018-Apr-13 19:26N 62°58' E 007°44'0 0.0
2018-Apr-13 18:50N 62°58' E 007°44'0 0.2
2018-Apr-13 18:28N 62°58' E 007°44'1 2.5
2018-Apr-13 18:00N 62°59' E 007°44'510.5
2018-Apr-13 17:30N 63°04' E 007°41'611.7
2018-Apr-13 17:00N 63°10' E 007°43'1110.6
2018-Apr-13 16:00N 63°21' E 007°38'612.3
2018-Apr-13 15:31N 63°27' E 007°39'612.0
2018-Apr-13 15:00N 63°33' E 007°42'612.3
2018-Apr-13 14:30N 63°38' E 007°49'612.4
2018-Apr-13 14:00N 63°43' E 007°56'612.6
2018-Apr-13 13:30N 63°49' E 008°04'612.2
2018-Apr-13 13:00N 63°54' E 008°11'612.0
2018-Apr-13 12:30N 63°59' E 008°18'16111.7
2018-Apr-12 22:45N 66°14' E 011°44'312.5
2018-Apr-12 22:30N 66°15' E 011°51'612.6
2018-Apr-12 22:00N 66°16' E 012°06'611.8
2018-Apr-12 21:31N 66°16' E 012°21'611.9
2018-Apr-12 21:00N 66°14' E 012°35'611.0
2018-Apr-12 20:30N 66°09' E 012°40'611.6
2018-Apr-12 20:00N 66°03' E 012°38'4 8.0
2018-Apr-12 19:30N 66°03' E 012°48'4 8.2
2018-Apr-12 19:00N 65°60' E 012°55'510.0
2018-Apr-12 18:28N 65°55' E 013°03'  

Dump ship's entire track history